Time;durP1;ratioP1;P1;durP2;ratioP2;P2;SDS_P1;SDS_P2;PMS_P1;PMS_P2;Temp;Humidity;BMP_temperature;BMP_pressure;BME280_temperature;BME280_humidity;BME280_pressure;Samples;Min_cycle;Max_cycle;Signal;HPM_P1;HPM_P2
2021/12/03 00:00:37;;;;;;;3.88;2.67;;;7.60;76.90;;;;;;5096048;28;20026;-19
2021/12/03 00:03:05;;;;;;;2.72;2.53;;;7.60;76.90;;;;;;5096229;28;20476;-18
2021/12/03 00:05:32;;;;;;;4.72;3.65;;;7.60;77.00;;;;;;5096246;28;20547;-18
2021/12/03 00:07:58;;;;;;;4.55;2.65;;;7.60;77.60;;;;;;5096445;28;20366;-19
2021/12/03 00:10:26;;;;;;;4.35;2.90;;;7.60;77.50;;;;;;5096173;28;20027;-19
2021/12/03 00:12:54;;;;;;;3.28;2.30;;;7.50;77.10;;;;;;5096065;28;20476;-18
2021/12/03 00:15:23;;;;;;;3.55;2.50;;;7.50;77.00;;;;;;5096563;28;20033;-19
2021/12/03 00:17:50;;;;;;;2.50;1.95;;;7.60;77.00;;;;;;5095255;28;20464;-18
2021/12/03 00:20:17;;;;;;;4.07;2.60;;;7.60;76.80;;;;;;5096016;28;20020;-18
2021/12/03 00:22:46;;;;;;;2.92;2.20;;;7.60;76.80;;;;;;5095915;28;20028;-19
2021/12/03 00:25:13;;;;;;;3.50;2.38;;;7.60;76.70;;;;;;5095844;28;20019;-18
2021/12/03 00:27:40;;;;;;;2.40;2.20;;;7.60;76.60;;;;;;5096008;28;20024;-19
2021/12/03 00:30:09;;;;;;;4.15;2.78;;;7.70;76.60;;;;;;5095559;28;20472;-18
2021/12/03 00:32:36;;;;;;;3.08;2.17;;;7.60;76.40;;;;;;5094271;28;20070;-19
2021/12/03 00:35:03;;;;;;;3.85;2.75;;;7.60;76.50;;;;;;5096034;28;20020;-18
2021/12/03 00:37:29;;;;;;;3.20;2.55;;;7.60;76.40;;;;;;5095976;28;20077;-18
2021/12/03 00:39:55;;;;;;;4.38;2.95;;;7.60;76.50;;;;;;5095755;28;20483;-18
2021/12/03 00:42:22;;;;;;;3.17;2.20;;;7.60;76.70;;;;;;5095669;28;20028;-18
2021/12/03 00:44:54;;;;;;;2.30;1.67;;;7.50;76.70;;;;;;5095713;28;20043;-19
2021/12/03 00:47:22;;;;;;;2.60;1.85;;;7.50;76.70;;;;;;5095516;28;20120;-19
2021/12/03 00:49:48;;;;;;;2.08;1.77;;;7.50;76.70;;;;;;5095128;28;20044;-19
2021/12/03 00:52:15;;;;;;;1.17;1.15;;;7.50;76.70;;;;;;5095224;28;20020;-18
2021/12/03 00:54:41;;;;;;;3.80;2.70;;;7.50;76.60;;;;;;5095912;28;20031;-19
2021/12/03 00:57:08;;;;;;;1.63;1.20;;;7.50;76.70;;;;;;5095228;28;20031;-19
2021/12/03 00:59:34;;;;;;;1.98;1.55;;;7.50;76.60;;;;;;5095193;28;20032;-18
2021/12/03 01:02:01;;;;;;;2.13;1.67;;;7.50;76.50;;;;;;5093849;28;20028;-19
2021/12/03 01:04:27;;;;;;;4.40;3.05;;;7.50;76.50;;;;;;5095162;28;20076;-18
2021/12/03 01:06:53;;;;;;;3.13;2.20;;;7.50;76.60;;;;;;5095382;28;20027;-18
2021/12/03 01:09:21;;;;;;;1.67;1.50;;;7.50;76.60;;;;;;5094949;28;20024;-19
2021/12/03 01:11:48;;;;;;;2.25;1.60;;;7.50;76.60;;;;;;5094895;28;20039;-19
2021/12/03 01:14:14;;;;;;;1.35;1.17;;;7.50;76.50;;;;;;5095057;28;20028;-19
2021/12/03 01:16:40;;;;;;;2.00;1.27;;;7.50;76.50;;;;;;5094950;28;20024;-18
2021/12/03 01:19:06;;;;;;;1.50;1.40;;;7.60;76.50;;;;;;5095229;28;20508;-19
2021/12/03 01:21:32;;;;;;;3.33;2.30;;;7.50;76.40;;;;;;5093589;28;20021;-19
2021/12/03 01:23:58;;;;;;;3.22;2.13;;;7.60;76.50;;;;;;5094773;28;20089;-19
2021/12/03 01:26:25;;;;;;;2.00;1.40;;;7.60;76.50;;;;;;5094445;28;20118;-20
2021/12/03 01:28:51;;;;;;;1.98;1.55;;;7.60;76.40;;;;;;5094336;28;20059;-19
2021/12/03 01:31:18;;;;;;;1.77;1.60;;;7.60;76.30;;;;;;5093923;28;20067;-19
2021/12/03 01:33:45;;;;;;;2.15;1.60;;;7.50;76.20;;;;;;5094511;28;20059;-19
2021/12/03 01:36:12;;;;;;;2.42;1.80;;;7.60;76.20;;;;;;5094604;28;20514;-19
2021/12/03 01:38:39;;;;;;;3.42;2.45;;;7.60;76.10;;;;;;5094761;28;20016;-19
2021/12/03 01:41:06;;;;;;;2.85;2.17;;;7.60;76.30;;;;;;5093428;28;20036;-19
2021/12/03 01:43:33;;;;;;;4.18;2.88;;;7.60;76.30;;;;;;5094323;28;20031;-18
2021/12/03 01:46:02;;;;;;;2.97;2.20;;;7.60;76.40;;;;;;5094181;28;20043;-19
2021/12/03 01:48:29;;;;;;;4.78;3.33;;;7.60;76.30;;;;;;5093826;28;20031;-18
2021/12/03 01:50:56;;;;;;;2.88;2.10;;;7.60;76.50;;;;;;5094439;28;20072;-19
2021/12/03 01:53:25;;;;;;;3.50;2.40;;;7.60;76.20;;;;;;5094150;28;20476;-18
2021/12/03 01:55:56;;;;;;;3.28;1.80;;;7.60;76.30;;;;;;5094330;28;20024;-20
2021/12/03 01:58:22;;;;;;;2.30;1.70;;;7.60;76.40;;;;;;5092629;28;20020;-19
2021/12/03 02:00:53;;;;;;;4.47;2.60;;;7.60;76.40;;;;;;5094218;28;20103;-19
2021/12/03 02:03:25;;;;;;;4.32;2.65;;;7.60;76.40;;;;;;5094250;28;20027;-18
2021/12/03 02:05:53;;;;;;;3.35;2.10;;;7.60;76.60;;;;;;5093954;28;20031;-19
2021/12/03 02:08:19;;;;;;;2.38;1.90;;;7.70;76.50;;;;;;5093681;28;20032;-19
2021/12/03 02:10:46;;;;;;;2.13;1.63;;;7.70;76.60;;;;;;5093826;28;20028;-18
2021/12/03 02:13:14;;;;;;;3.70;2.40;;;7.60;76.60;;;;;;5093783;28;20030;-19
2021/12/03 02:15:42;;;;;;;1.58;1.48;;;7.70;76.40;;;;;;5094009;28;20074;-19
2021/12/03 02:18:10;;;;;;;2.92;2.05;;;7.70;76.30;;;;;;5094043;28;20048;-19
2021/12/03 02:20:43;;;;;;;3.47;2.13;;;7.70;76.20;;;;;;5093781;28;20039;-19
2021/12/03 02:23:09;;;;;;;4.15;2.53;;;7.70;76.20;;;;;;5093968;28;20020;-18
2021/12/03 02:25:35;;;;;;;6.70;4.18;;;7.80;76.10;;;;;;5093674;28;20483;-19
2021/12/03 02:28:01;;;;;;;3.50;2.78;;;7.70;76.40;;;;;;5093568;28;20077;-20
2021/12/03 02:30:27;;;;;;;5.43;3.25;;;7.80;76.10;;;;;;5091926;28;20028;-20
2021/12/03 02:32:55;;;;;;;3.42;2.25;;;7.80;76.20;;;;;;5093578;28;20066;-20
2021/12/03 02:35:23;;;;;;;2.75;2.00;;;7.80;76.20;;;;;;5093381;28;20204;-19
2021/12/03 02:37:50;;;;;;;2.47;2.05;;;7.80;76.20;;;;;;5092301;28;20020;-19
2021/12/03 02:40:17;;;;;;;4.63;2.83;;;7.80;76.20;;;;;;5093687;28;20032;-19
2021/12/03 02:42:44;;;;;;;2.63;1.60;;;7.80;76.30;;;;;;5093692;28;20028;-19
2021/12/03 02:45:13;;;;;;;6.55;4.32;;;7.70;76.20;;;;;;5093295;28;20472;-19
2021/12/03 02:47:40;;;;;;;3.67;2.70;;;7.80;76.40;;;;;;5093307;28;20400;-19
2021/12/03 02:50:08;;;;;;;7.88;4.50;;;7.80;76.30;;;;;;5093147;28;20504;-19
2021/12/03 02:52:36;;;;;;;5.85;3.78;;;7.70;76.20;;;;;;5093306;28;20047;-19
2021/12/03 02:55:04;;;;;;;6.22;3.80;;;7.80;76.20;;;;;;5093222;28;20036;-20
2021/12/03 02:57:29;;;;;;;5.20;3.30;;;7.80;76.10;;;;;;5093547;28;20062;-19
2021/12/03 02:59:56;;;;;;;4.53;3.13;;;7.80;76.10;;;;;;5093097;28;20055;-19
2021/12/03 03:02:21;;;;;;;5.78;3.88;;;7.80;76.10;;;;;;5092943;28;20035;-20
2021/12/03 03:04:48;;;;;;;5.55;3.40;;;7.80;76.00;;;;;;5093097;28;20024;-20
2021/12/03 03:07:14;;;;;;;6.50;3.67;;;7.80;76.10;;;;;;5093411;28;20029;-20
2021/12/03 03:09:44;;;;;;;3.75;2.63;;;7.70;76.20;;;;;;5093342;28;20036;-19
2021/12/03 03:12:14;;;;;;;4.82;3.33;;;7.70;76.10;;;;;;5093353;28;20032;-20
2021/12/03 03:14:51;;;;;;;5.93;4.00;;;7.80;76.20;;;;;;5093129;28;20023;-20
2021/12/03 03:17:19;;;;;;;4.28;3.00;;;7.80;76.30;;;;;;5093959;28;20031;-20
2021/12/03 03:19:44;;;;;;;5.13;3.17;;;7.80;76.20;;;;;;5093928;28;20023;-20
2021/12/03 03:22:10;;;;;;;5.18;3.38;;;7.70;76.10;;;;;;5092917;28;20020;-19
2021/12/03 03:24:37;;;;;;;8.65;4.65;;;7.80;76.10;;;;;;5092812;28;20055;-20
2021/12/03 03:27:03;;;;;;;7.10;4.65;;;7.70;76.10;;;;;;5093354;28;20414;-20
2021/12/03 03:29:30;;;;;;;4.38;2.88;;;7.70;76.20;;;;;;5092716;28;20024;-20
2021/12/03 03:31:56;;;;;;;4.38;3.08;;;7.70;76.20;;;;;;5092892;28;20039;-20
2021/12/03 03:34:22;;;;;;;6.10;4.63;;;7.70;76.20;;;;;;5092912;28;20032;-20
2021/12/03 03:36:48;;;;;;;6.22;4.43;;;7.70;76.30;;;;;;5093276;28;20468;-20
2021/12/03 03:39:15;;;;;;;6.30;4.20;;;7.70;76.20;;;;;;5092987;28;20157;-20
2021/12/03 03:41:42;;;;;;;7.05;4.32;;;7.70;76.30;;;;;;5092804;28;20103;-19
2021/12/03 03:44:10;;;;;;;7.07;3.72;;;7.70;76.40;;;;;;5093036;28;20039;-20
2021/12/03 03:46:37;;;;;;;6.45;4.07;;;7.70;76.30;;;;;;5092491;28;20072;-19
2021/12/03 03:49:04;;;;;;;7.13;4.68;;;7.70;76.40;;;;;;5092668;28;20051;-19
2021/12/03 03:51:30;;;;;;;6.45;3.95;;;7.60;76.40;;;;;;5092863;28;20123;-20
2021/12/03 03:53:56;;;;;;;9.45;5.55;;;7.60;76.50;;;;;;5095118;28;20036;-20
2021/12/03 03:56:22;;;;;;;5.43;3.63;;;7.60;76.50;;;;;;5096246;28;20020;-20
2021/12/03 03:58:48;;;;;;;6.00;3.30;;;7.60;76.70;;;;;;5097264;28;20032;-19
2021/12/03 04:01:14;;;;;;;7.75;4.30;;;7.60;76.60;;;;;;5096564;28;20012;-20
2021/12/03 04:03:45;;;;;;;6.72;4.53;;;7.60;76.70;;;;;;5096254;28;20028;-20
2021/12/03 04:06:15;;;;;;;5.85;3.72;;;7.60;76.70;;;;;;5096607;28;20024;-19
2021/12/03 04:08:43;;;;;;;4.43;2.80;;;7.60;76.90;;;;;;5096166;28;20062;-19
2021/12/03 04:11:11;;;;;;;4.97;2.90;;;7.60;76.70;;;;;;5096734;28;20024;-19
2021/12/03 04:13:37;;;;;;;4.35;2.80;;;7.50;76.70;;;;;;5096765;28;20027;-19
2021/12/03 04:16:04;;;;;;;5.78;3.53;;;7.60;76.70;;;;;;5096038;28;20028;-19
2021/12/03 04:18:30;;;;;;;4.90;2.92;;;7.50;76.70;;;;;;5095816;28;20413;-19
2021/12/03 04:20:56;;;;;;;8.20;4.85;;;7.50;76.70;;;;;;5096866;28;20107;-20
2021/12/03 04:23:22;;;;;;;6.47;3.58;;;7.50;76.80;;;;;;5096770;28;20058;-18
2021/12/03 04:25:50;;;;;;;4.63;2.95;;;7.50;76.80;;;;;;5094650;28;20028;-19
2021/12/03 04:28:18;;;;;;;2.97;2.20;;;7.50;76.80;;;;;;5094422;28;20059;-20
2021/12/03 04:30:45;;;;;;;6.30;3.67;;;7.60;76.70;;;;;;5095823;28;20024;-19
2021/12/03 04:33:11;;;;;;;7.72;5.05;;;7.50;76.80;;;;;;5096054;28;20115;-19
2021/12/03 04:35:38;;;;;;;6.53;3.40;;;7.50;76.80;;;;;;5095906;28;20028;-19
2021/12/03 04:38:05;;;;;;;6.13;3.90;;;7.50;76.70;;;;;;5095837;28;20028;-19
2021/12/03 04:40:33;;;;;;;4.68;2.97;;;7.50;76.80;;;;;;5094190;28;20012;-19
2021/12/03 04:42:59;;;;;;;4.80;2.80;;;7.50;76.70;;;;;;5094344;28;20032;-19
2021/12/03 04:45:27;;;;;;;3.83;2.72;;;7.50;76.70;;;;;;5095704;28;20099;-20
2021/12/03 04:47:54;;;;;;;5.57;2.78;;;7.50;76.70;;;;;;5095778;28;20032;-20
2021/12/03 04:50:23;;;;;;;8.00;4.07;;;7.50;76.60;;;;;;5094828;28;20514;-19
2021/12/03 04:52:50;;;;;;;6.45;4.22;;;7.50;76.60;;;;;;5096052;28;20016;-19
2021/12/03 04:55:17;;;;;;;7.45;4.45;;;7.50;76.80;;;;;;5095513;28;20024;-19
2021/12/03 04:57:43;;;;;;;3.20;2.58;;;7.50;76.80;;;;;;5077250;28;20048;-19
2021/12/03 05:00:26;;;;;;;4.28;2.90;;;7.50;76.70;;;;;;5095093;28;20077;-19
2021/12/03 05:02:53;;;;;;;4.10;2.42;;;7.50;76.60;;;;;;5095561;28;20031;-19
2021/12/03 05:05:23;;;;;;;2.90;2.10;;;7.40;76.60;;;;;;5094863;28;20020;-20
2021/12/03 05:07:57;;;;;;;3.25;2.45;;;7.40;76.60;;;;;;5095361;28;20043;-19
2021/12/03 05:10:29;;;;;;;3.85;2.50;;;7.40;76.60;;;;;;5095105;28;20464;-19
2021/12/03 05:13:01;;;;;;;2.70;2.10;;;7.40;76.60;;;;;;5094971;28;20081;-20
2021/12/03 05:15:28;;;;;;;3.60;2.75;;;7.40;76.60;;;;;;5094862;28;20472;-18
2021/12/03 05:17:54;;;;;;;3.08;2.60;;;7.40;76.60;;;;;;5095212;28;20495;-19
2021/12/03 05:20:21;;;;;;;4.10;1.83;;;7.40;76.70;;;;;;5094834;28;20065;-20
2021/12/03 05:22:46;;;;;;;2.38;2.10;;;7.40;76.70;;;;;;5093552;28;20024;-19
2021/12/03 05:25:12;;;;;;;2.83;2.45;;;7.40;76.60;;;;;;5094995;28;20031;-19
2021/12/03 05:27:39;;;;;;;2.72;1.88;;;7.40;76.70;;;;;;5093467;28;20388;-20
2021/12/03 05:30:08;;;;;;;1.95;1.70;;;7.30;76.70;;;;;;5094742;28;20031;-19
2021/12/03 05:32:34;;;;;;;1.80;1.60;;;7.30;76.70;;;;;;5094326;28;20472;-19
2021/12/03 05:35:00;;;;;;;2.40;1.90;;;7.30;76.70;;;;;;5094835;28;20052;-18
2021/12/03 05:37:26;;;;;;;3.53;2.00;;;7.40;76.70;;;;;;5095145;28;20447;-19
2021/12/03 05:39:52;;;;;;;3.28;2.08;;;7.30;76.70;;;;;;5094413;28;20027;-18
2021/12/03 05:42:17;;;;;;;2.65;1.90;;;7.30;76.60;;;;;;5094506;28;20030;-19
2021/12/03 05:44:43;;;;;;;3.92;2.92;;;7.40;76.60;;;;;;5094626;28;20024;-18
2021/12/03 05:47:09;;;;;;;3.47;2.33;;;7.30;76.50;;;;;;5094224;28;20028;-20
2021/12/03 05:49:35;;;;;;;4.35;2.30;;;7.30;76.60;;;;;;5092714;28;20040;-19
2021/12/03 05:52:01;;;;;;;3.05;2.45;;;7.40;76.70;;;;;;5094407;28;20028;-20
2021/12/03 05:54:28;;;;;;;2.88;1.90;;;7.30;76.50;;;;;;5094269;28;20024;-19
2021/12/03 05:56:54;;;;;;;3.17;2.58;;;7.30;76.50;;;;;;5094416;28;20104;-20
2021/12/03 05:59:20;;;;;;;2.20;2.00;;;7.30;76.50;;;;;;5094395;28;20039;-20
2021/12/03 06:01:46;;;;;;;3.40;2.53;;;7.30;76.40;;;;;;5094122;28;20384;-19
2021/12/03 06:04:12;;;;;;;4.00;2.28;;;7.30;76.50;;;;;;5094021;28;20032;-22
2021/12/03 06:06:38;;;;;;;2.78;1.92;;;7.30;76.60;;;;;;5094023;28;20035;-20
2021/12/03 06:09:04;;;;;;;2.67;1.98;;;7.30;76.40;;;;;;5093964;28;20035;-19
2021/12/03 06:11:31;;;;;;;3.30;2.67;;;7.30;76.40;;;;;;5093795;28;20035;-20
2021/12/03 06:13:57;;;;;;;2.60;2.00;;;7.30;76.40;;;;;;5094158;28;20032;-19
2021/12/03 06:16:23;;;;;;;2.80;2.05;;;7.30;76.40;;;;;;5093715;28;20028;-20
2021/12/03 06:18:49;;;;;;;3.47;2.15;;;7.30;76.30;;;;;;5094075;28;20034;-19
2021/12/03 06:21:15;;;;;;;3.38;2.50;;;7.30;76.30;;;;;;5093761;28;20024;-19
2021/12/03 06:23:42;;;;;;;3.13;2.30;;;7.30;76.30;;;;;;5093730;28;20093;-19
2021/12/03 06:26:09;;;;;;;5.55;3.95;;;7.30;76.30;;;;;;5093924;28;20026;-20
2021/12/03 06:28:37;;;;;;;3.95;2.92;;;7.30;76.40;;;;;;5093433;28;20103;-20
2021/12/03 06:31:04;;;;;;;3.15;2.25;;;7.30;76.40;;;;;;5093759;28;20017;-19
2021/12/03 06:33:30;;;;;;;2.80;2.22;;;7.20;76.50;;;;;;5094573;28;20026;-20
2021/12/03 06:35:56;;;;;;;3.05;2.13;;;7.20;76.40;;;;;;5094284;28;20070;-19
2021/12/03 06:38:23;;;;;;;4.18;2.53;;;7.20;76.50;;;;;;5093238;28;20073;-21
2021/12/03 06:40:50;;;;;;;2.88;1.92;;;7.20;76.40;;;;;;5093442;28;20031;-20
2021/12/03 06:43:16;;;;;;;2.53;1.63;;;7.20;76.50;;;;;;5093709;28;20102;-20
2021/12/03 06:45:43;;;;;;;2.60;2.08;;;7.20;76.40;;;;;;5093219;28;20448;-20
2021/12/03 06:48:09;;;;;;;3.55;2.38;;;7.20;76.40;;;;;;5093330;28;20114;-19
2021/12/03 06:50:37;;;;;;;2.97;2.00;;;7.20;76.50;;;;;;5092846;28;20044;-20
2021/12/03 06:53:06;;;;;;;2.58;2.25;;;7.20;76.50;;;;;;5093238;28;20484;-20
2021/12/03 06:55:47;;;;;;;3.08;2.47;;;7.20;76.50;;;;;;5093224;28;20028;-19
2021/12/03 06:58:14;;;;;;;2.85;2.28;;;7.20;76.50;;;;;;5093036;28;20024;-19
2021/12/03 07:00:40;;;;;;;12.38;7.65;;;7.20;76.40;;;;;;5093080;28;20020;-18
2021/12/03 07:03:06;;;;;;;8.32;5.10;;;7.10;76.40;;;;;;5093688;28;20084;-19
2021/12/03 07:05:32;;;;;;;11.20;6.53;;;7.20;76.40;;;;;;5093307;28;20111;-19
2021/12/03 07:07:58;;;;;;;7.03;3.90;;;7.10;76.50;;;;;;5093400;28;20028;-19
2021/12/03 07:10:24;;;;;;;5.55;3.25;;;7.10;76.40;;;;;;5093644;28;20033;-19
2021/12/03 07:12:50;;;;;;;6.63;4.15;;;7.10;76.50;;;;;;5093544;28;20032;-19
2021/12/03 07:15:16;;;;;;;4.43;3.13;;;7.10;76.50;;;;;;5093208;28;20103;-19
2021/12/03 07:17:42;;;;;;;5.97;3.90;;;7.10;76.50;;;;;;5093030;28;20039;-19
2021/12/03 07:20:09;;;;;;;5.63;3.60;;;7.10;76.40;;;;;;5092984;28;20020;-19
2021/12/03 07:22:36;;;;;;;8.43;4.78;;;7.10;76.40;;;;;;5149014;22;20562;-25
2021/12/03 07:25:04;;;;;;;7.85;4.47;;;7.10;76.50;;;;;;5072840;28;20017;-24
2021/12/03 07:27:30;;;;;;;7.03;4.97;;;7.10;76.50;;;;;;5075052;28;20094;-28
2021/12/03 07:29:56;;;;;;;6.43;4.15;;;7.10;76.40;;;;;;5076985;28;20032;-29
2021/12/03 07:32:24;;;;;;;7.25;4.45;;;7.10;76.40;;;;;;5075247;28;20134;-26
2021/12/03 07:34:50;;;;;;;6.22;3.80;;;7.10;76.30;;;;;;5076947;28;20101;-25
2021/12/03 07:37:16;;;;;;;5.50;3.40;;;7.10;76.40;;;;;;5076490;28;20029;-26
2021/12/03 07:39:44;;;;;;;5.40;3.50;;;7.10;76.30;;;;;;5076526;28;20032;-24
2021/12/03 07:42:10;;;;;;;5.30;2.55;;;7.10;76.40;;;;;;5076479;28;20036;-27
2021/12/03 07:44:36;;;;;;;6.32;3.70;;;7.10;76.40;;;;;;5076533;28;20091;-25
2021/12/03 07:47:03;;;;;;;4.43;2.83;;;7.10;76.50;;;;;;5076616;28;20131;-26
2021/12/03 07:49:30;;;;;;;6.53;3.75;;;7.10;76.50;;;;;;5076222;28;20028;-27
2021/12/03 07:51:56;;;;;;;5.50;2.75;;;7.10;76.40;;;;;;5076427;28;20027;-26
2021/12/03 07:54:23;;;;;;;3.80;2.67;;;7.10;76.50;;;;;;5076305;28;20028;-26
2021/12/03 07:56:49;;;;;;;4.13;2.53;;;7.10;76.40;;;;;;5076199;28;20033;-26
2021/12/03 07:59:15;;;;;;;3.05;2.38;;;7.20;76.20;;;;;;5076139;28;20028;-27
2021/12/03 08:01:43;;;;;;;7.63;4.55;;;7.20;76.20;;;;;;5076106;28;20035;-27
2021/12/03 08:04:10;;;;;;;5.10;3.40;;;7.20;76.30;;;;;;5076049;28;20107;-28
2021/12/03 08:06:39;;;;;;;4.53;3.00;;;7.20;76.30;;;;;;5074484;28;20039;-27
2021/12/03 08:09:09;;;;;;;6.70;3.72;;;7.30;76.20;;;;;;5076172;28;20023;-26
2021/12/03 08:11:37;;;;;;;6.43;3.33;;;7.30;76.20;;;;;;5076203;28;20032;-22
2021/12/03 08:14:04;;;;;;;5.03;2.65;;;7.40;76.20;;;;;;5075899;28;20112;-26
2021/12/03 08:16:30;;;;;;;5.78;3.20;;;7.40;76.20;;;;;;5075634;28;20032;-27
2021/12/03 08:18:56;;;;;;;4.00;2.65;;;7.40;76.20;;;;;;5076087;28;20032;-26
2021/12/03 08:21:21;;;;;;;5.15;2.90;;;7.50;76.20;;;;;;5074170;28;20064;-27
2021/12/03 08:23:48;;;;;;;4.80;2.95;;;7.60;76.20;;;;;;5075698;28;20107;-27
2021/12/03 08:26:16;;;;;;;3.97;2.60;;;7.60;76.20;;;;;;5075785;28;20032;-26
2021/12/03 08:28:42;;;;;;;4.30;2.42;;;7.70;76.00;;;;;;5075645;28;20024;-27
2021/12/03 08:31:14;;;;;;;4.53;2.85;;;7.80;76.00;;;;;;5075904;28;20082;-27
2021/12/03 08:33:44;;;;;;;7.07;4.20;;;7.80;76.10;;;;;;5075571;28;20479;-26
2021/12/03 08:36:10;;;;;;;5.40;3.17;;;7.90;76.10;;;;;;5075666;28;20025;-26
2021/12/03 08:38:36;;;;;;;6.78;4.32;;;7.90;75.90;;;;;;5074653;28;20021;-28
2021/12/03 08:41:03;;;;;;;8.50;4.90;;;8.00;75.90;;;;;;5075741;28;20383;-28
2021/12/03 08:43:29;;;;;;;10.50;5.93;;;8.10;75.70;;;;;;5075318;28;20036;-26
2021/12/03 08:45:57;;;;;;;9.20;5.78;;;8.20;75.80;;;;;;5075315;28;20035;-27
2021/12/03 08:48:24;;;;;;;19.38;12.18;;;8.30;75.90;;;;;;5075309;28;20055;-25
2021/12/03 08:51:04;;;;;;;10.32;6.90;;;8.30;75.90;;;;;;5074996;28;20082;-26
2021/12/03 08:56:15;;;;;;;5.85;3.63;;;8.50;75.90;;;;;;5075266;28;20031;-27
2021/12/03 08:58:42;;;;;;;8.13;4.63;;;8.70;75.90;;;;;;5075683;28;20062;-26
2021/12/03 09:01:10;;;;;;;7.55;4.45;;;8.80;75.90;;;;;;5075008;28;20028;-26
2021/12/03 09:03:36;;;;;;;8.77;5.15;;;8.90;75.90;;;;;;5075220;28;20053;-28
2021/12/03 09:06:02;;;;;;;12.98;7.53;;;9.00;75.70;;;;;;5075017;28;20029;-27
2021/12/03 09:08:28;;;;;;;7.97;5.50;;;9.10;75.70;;;;;;5074649;28;20487;-27
2021/12/03 09:10:54;;;;;;;9.02;5.57;;;9.20;75.70;;;;;;5074744;28;20039;-29
2021/12/03 09:13:21;;;;;;;10.35;6.70;;;9.30;75.40;;;;;;5074820;28;20025;-26
2021/12/03 09:16:06;;;;;;;10.18;6.18;;;9.40;75.40;;;;;;5075565;28;20029;-27
2021/12/03 09:18:44;;;;;;;11.60;7.68;;;9.50;75.20;;;;;;5074544;28;20475;-26
2021/12/03 09:21:29;;;;;;;6.40;4.00;;;9.50;75.10;;;;;;5074333;28;20052;-26
2021/12/03 09:24:07;;;;;;;10.82;6.78;;;9.60;75.00;;;;;;5074648;28;20032;-25
2021/12/03 09:26:37;;;;;;;9.27;5.75;;;9.70;74.90;;;;;;5074469;28;20509;-26
2021/12/03 09:29:07;;;;;;;16.23;9.10;;;9.70;74.80;;;;;;5074809;28;20479;-27
2021/12/03 09:31:36;;;;;;;7.20;4.15;;;9.80;74.70;;;;;;5074283;28;20037;-29
2021/12/03 09:34:10;;;;;;;7.40;4.95;;;9.80;74.70;;;;;;5074286;28;20026;-26
2021/12/03 09:36:40;;;;;;;6.18;3.78;;;9.90;74.60;;;;;;5074053;28;20028;-27
2021/12/03 09:39:09;;;;;;;10.20;6.13;;;9.90;74.60;;;;;;5074264;28;20028;-25
2021/12/03 09:41:36;;;;;;;6.53;4.13;;;9.90;74.50;;;;;;5074191;28;20086;-27
2021/12/03 09:44:03;;;;;;;8.57;5.38;;;10.00;74.30;;;;;;5074284;28;20017;-25
2021/12/03 09:46:30;;;;;;;6.30;3.85;;;10.10;74.10;;;;;;5074007;28;20108;-28
2021/12/03 09:51:40;;;;;;;12.00;7.63;;;10.30;74.10;;;;;;5073073;28;20116;-26
2021/12/03 09:56:46;;;;;;;5.90;3.53;;;10.50;73.80;;;;;;5074038;28;20029;-28
2021/12/03 10:02:12;;;;;;;10.73;6.45;;;10.70;73.00;;;;;;5074385;28;20430;-27
2021/12/03 10:10:42;;;;;;;7.50;4.53;;;10.90;72.90;;;;;;5073837;28;20166;-24
2021/12/03 10:13:24;;;;;;;8.55;5.50;;;10.90;73.20;;;;;;5073562;28;20032;-26
2021/12/03 10:19:02;;;;;;;7.10;4.57;;;11.10;73.00;;;;;;5073635;28;20031;-25
2021/12/03 10:44:08;;;;;;;7.00;4.80;;;11.50;71.70;;;;;;5034013;28;20038;-20
2021/12/03 11:00:38;;;;;;;8.70;5.22;;;12.00;71.30;;;;;;5033493;28;20100;-20
2021/12/03 12:21:52;;;;;;;4.68;3.33;;;15.30;55.50;;;;;;5036274;28;20103;-20
2021/12/03 12:44:35;;;;;;;3.05;2.28;;;15.10;58.80;;;;;;5036053;28;20057;-22
2021/12/03 13:12:39;;;;;;;1.30;1.20;;;15.90;57.30;;;;;;5035067;28;20193;-21
2021/12/03 13:15:22;;;;;;;1.05;0.95;;;16.00;56.90;;;;;;5033303;28;20033;-21
2021/12/03 13:35:27;;;;;;;1.25;1.15;;;16.60;54.50;;;;;;4992976;28;20057;-22
2021/12/03 13:41:46;;;;;;;2.33;1.60;;;16.80;54.00;;;;;;5034505;28;20040;-22
2021/12/03 14:46:02;;;;;;;1.65;1.30;;;16.40;52.60;;;;;;5034052;28;20492;-23
2021/12/03 15:00:11;;;;;;;3.97;2.33;;;15.90;52.90;;;;;;4992012;28;20030;-22
2021/12/03 15:08:35;;;;;;;3.40;1.80;;;15.40;53.50;;;;;;4991823;28;20450;-22
2021/12/03 15:11:49;;;;;;;1.73;1.45;;;15.10;53.90;;;;;;4992150;28;20058;-23
2021/12/03 15:14:35;;;;;;;1.90;1.48;;;15.00;54.10;;;;;;4991647;28;20047;-22
2021/12/03 15:20:12;;;;;;;1.67;1.58;;;14.50;54.60;;;;;;4991946;28;20573;-23
2021/12/03 15:35:44;;;;;;;2.78;2.13;;;13.20;56.50;;;;;;5033443;28;20079;-23
2021/12/03 16:08:46;;;;;;;1.85;1.35;;;10.70;59.50;;;;;;5036528;28;20120;-23
2021/12/03 16:53:31;;;;;;;7.47;4.07;;;8.30;62.60;;;;;;5035684;28;20389;-25
2021/12/03 16:56:22;;;;;;;7.28;4.57;;;8.20;62.70;;;;;;5035461;28;20071;-24
2021/12/03 16:58:45;;;;;;;5.68;3.70;;;8.10;62.80;;;;;;5035076;28;20473;-24
2021/12/03 17:03:58;;;;;;;8.40;4.05;;;7.90;63.00;;;;;;5035134;28;20083;-25
2021/12/03 17:14:48;;;;;;;8.68;5.68;;;7.70;63.40;;;;;;5034815;28;20160;-23
2021/12/03 17:54:57;;;;;;;7.97;4.00;;;6.90;64.10;;;;;;4992776;28;20042;-25
2021/12/03 18:00:19;;;;;;;8.88;4.68;;;6.80;64.20;;;;;;4992782;28;20031;-25
2021/12/03 18:02:48;;;;;;;6.15;3.78;;;6.80;64.20;;;;;;4993229;28;20026;-24
2021/12/03 18:08:15;;;;;;;9.25;5.30;;;6.80;64.10;;;;;;4984992;28;20030;-24
2021/12/03 18:56:30;;;;;;;;;;;6.10;65.30;;;;;;5034061;28;20036;-25
2021/12/03 18:59:00;;;;;;;15.77;9.32;;;6.10;66.80;;;;;;5033538;28;19912;-23
2021/12/03 19:01:28;;;;;;;22.63;13.55;;;6.10;66.60;;;;;;5033145;28;20067;-24
2021/12/03 19:04:18;;;;;;;15.63;10.30;;;6.10;66.40;;;;;;5033007;28;20472;-24
2021/12/03 19:09:15;;;;;;;22.52;13.93;;;6.00;67.60;;;;;;5033701;28;20030;-23
2021/12/03 19:11:53;;;;;;;22.40;14.57;;;5.90;68.30;;;;;;5033350;28;20037;-24
2021/12/03 19:14:30;;;;;;;19.52;11.43;;;5.80;68.70;;;;;;5032934;28;20366;-23
2021/12/03 19:16:57;;;;;;;17.33;10.77;;;5.80;67.80;;;;;;5033298;28;20032;-24
2021/12/03 19:19:23;;;;;;;14.55;10.05;;;5.80;68.30;;;;;;5033189;28;20037;-24
2021/12/03 19:21:53;;;;;;;16.63;9.52;;;5.80;68.20;;;;;;5032928;28;20078;-24
2021/12/03 19:24:19;;;;;;;19.02;10.85;;;5.80;69.00;;;;;;5036946;28;20068;-23
2021/12/03 19:26:46;;;;;;;15.57;10.32;;;5.70;69.50;;;;;;5037265;28;20082;-23
2021/12/03 19:29:17;;;;;;;15.38;8.95;;;5.70;69.70;;;;;;5036868;28;20030;-23
2021/12/03 19:31:46;;;;;;;10.13;6.88;;;5.70;69.20;;;;;;5036884;28;20151;-24
2021/12/03 19:34:14;;;;;;;14.20;8.90;;;5.70;68.90;;;;;;5036784;28;20026;-24
2021/12/03 19:36:44;;;;;;;16.20;9.82;;;5.80;68.50;;;;;;5036742;28;20428;-23
2021/12/03 19:39:13;;;;;;;18.83;11.35;;;5.80;68.20;;;;;;5037056;28;20029;-23
2021/12/03 19:44:48;;;;;;;19.55;11.85;;;5.90;67.70;;;;;;5036745;28;20041;-22
2021/12/03 19:47:15;;;;;;;15.70;9.98;;;6.00;67.60;;;;;;5036616;28;20113;-24
2021/12/03 19:52:14;;;;;;;13.18;8.18;;;6.00;67.90;;;;;;5036736;28;20033;-24
2021/12/03 19:54:40;;;;;;;13.27;8.02;;;6.10;67.70;;;;;;5036513;28;20026;-23
2021/12/03 19:57:06;;;;;;;10.68;6.63;;;6.10;68.00;;;;;;5036370;28;20026;-23
2021/12/03 19:59:32;;;;;;;11.07;6.72;;;6.10;67.70;;;;;;5036885;28;20029;-24
2021/12/03 20:01:59;;;;;;;12.80;9.55;;;6.10;67.50;;;;;;5036608;28;20388;-24
2021/12/03 20:04:26;;;;;;;12.95;8.50;;;6.10;67.10;;;;;;5036294;28;20040;-23
2021/12/03 20:06:51;;;;;;;17.13;9.77;;;6.10;66.80;;;;;;5036478;28;20029;-24
2021/12/03 20:09:21;;;;;;;13.40;7.75;;;6.10;66.60;;;;;;5036512;28;20029;-24
2021/12/03 20:11:50;;;;;;;12.02;7.25;;;6.10;66.50;;;;;;5036595;28;20503;-24
2021/12/03 20:14:20;;;;;;;10.90;7.20;;;6.00;66.40;;;;;;5036137;28;20029;-24
2021/12/03 20:22:17;;;;;;;11.10;7.43;;;5.90;66.30;;;;;;5036021;28;20022;-24
2021/12/03 20:27:18;;;;;;;16.42;9.95;;;5.80;66.30;;;;;;5036501;28;20461;-24
2021/12/03 20:32:32;;;;;;;17.55;9.88;;;5.70;66.20;;;;;;5035642;28;20417;-27
2021/12/03 20:37:46;;;;;;;16.45;10.15;;;5.60;66.50;;;;;;5036214;28;20053;-24
2021/12/03 20:40:50;;;;;;;16.52;7.47;;;5.50;66.40;;;;;;5035369;28;20064;-25
2021/12/03 20:45:57;;;;;;;19.88;10.65;;;5.40;66.40;;;;;;5036144;28;20078;-24
2021/12/03 20:59:35;;;;;;;18.83;12.35;;;5.10;66.40;;;;;;5035578;28;20082;-23
2021/12/03 21:09:56;;;;;;;17.08;9.88;;;4.90;66.70;;;;;;5035460;28;20027;-24
2021/12/03 21:12:25;;;;;;;15.90;9.85;;;4.90;67.00;;;;;;5034773;28;20084;-24
2021/12/03 21:22:35;;;;;;;6.72;3.90;;;4.90;66.70;;;;;;5034977;28;20540;-24
2021/12/03 21:25:06;;;;;;;5.38;3.38;;;4.90;66.50;;;;;;5034720;28;20030;-23
2021/12/03 21:27:39;;;;;;;9.60;6.50;;;4.90;66.50;;;;;;5034733;28;20029;-24
2021/12/03 21:43:20;;;;;;;8.23;4.95;;;5.10;66.80;;;;;;5034520;28;20075;-24
2021/12/03 21:45:47;;;;;;;5.90;3.17;;;5.10;66.70;;;;;;5034343;28;20459;-24
2021/12/03 21:48:13;;;;;;;6.07;3.88;;;5.10;66.60;;;;;;5034333;28;20052;-24
2021/12/03 21:50:40;;;;;;;18.00;11.30;;;5.20;66.50;;;;;;5034502;28;20497;-24
2021/12/03 21:53:07;;;;;;;9.02;5.65;;;5.20;67.10;;;;;;5034521;28;20037;-24
2021/12/03 21:55:38;;;;;;;9.48;5.68;;;5.20;66.70;;;;;;5034464;28;20025;-24